createdAt,value
2024-02-23T00:00:02.502Z,8.6
2024-02-23T00:01:01.306Z,8.6
2024-02-23T00:02:02.827Z,8.5
2024-02-23T00:03:02.388Z,8.5
2024-02-23T00:04:02.249Z,8.6
2024-02-23T00:05:02.445Z,8.5
2024-02-23T00:06:02.292Z,8.6
2024-02-23T00:07:02.659Z,8.6
2024-02-23T00:08:03.055Z,8.6
2024-02-23T00:09:02.445Z,8.6
2024-02-23T00:10:02.470Z,8.6
2024-02-23T00:11:02.500Z,8.6
2024-02-23T00:12:03.105Z,8.6
2024-02-23T00:13:02.353Z,8.6
2024-02-23T00:14:02.511Z,8.6
2024-02-23T00:15:02.177Z,8.6
2024-02-23T00:16:02.733Z,8.6
2024-02-23T00:17:02.142Z,8.6
2024-02-23T00:18:02.782Z,8.6
2024-02-23T00:19:02.692Z,8.6
2024-02-23T00:20:02.400Z,8.6
2024-02-23T00:21:02.489Z,8.6
2024-02-23T00:22:02.490Z,8.6
2024-02-23T00:23:02.307Z,8.6
2024-02-23T00:25:02.311Z,8.6
2024-02-23T00:26:02.420Z,8.6
2024-02-23T00:27:02.314Z,8.6
2024-02-23T00:28:02.117Z,8.5
2024-02-23T00:30:01.984Z,8.6
2024-02-23T00:31:01.954Z,8.5
2024-02-23T00:32:02.304Z,8.6
2024-02-23T00:33:02.896Z,8.6
2024-02-23T00:34:02.685Z,8.6
2024-02-23T00:35:02.747Z,8.6
2024-02-23T00:36:01.866Z,8.6
2024-02-23T00:37:02.101Z,8.5
2024-02-23T00:38:02.481Z,8.6
2024-02-23T00:39:02.593Z,8.6
2024-02-23T00:40:02.943Z,8.6
2024-02-23T00:41:02.370Z,8.5
2024-02-23T00:42:02.627Z,8.5
2024-02-23T00:43:02.128Z,8.6
2024-02-23T00:44:02.224Z,8.5
2024-02-23T00:45:02.148Z,8.5
2024-02-23T00:46:02.317Z,8.5
2024-02-23T00:47:02.089Z,8.5
2024-02-23T00:48:02.566Z,8.5
2024-02-23T00:49:02.148Z,8.5
2024-02-23T00:50:02.820Z,8.5
2024-02-23T00:51:02.353Z,8.5
2024-02-23T00:52:02.016Z,8.5
2024-02-23T00:53:02.230Z,8.5
2024-02-23T00:54:02.507Z,8.5
2024-02-23T00:55:02.069Z,8.4
2024-02-23T00:56:02.130Z,8.5
2024-02-23T00:57:02.439Z,8.4
2024-02-23T00:58:02.109Z,8.4
2024-02-23T00:59:02.601Z,8.4
2024-02-23T01:00:02.684Z,8.4
2024-02-23T01:01:02.036Z,8.4
2024-02-23T01:02:02.097Z,8.4
2024-02-23T01:03:02.412Z,8.4
2024-02-23T01:04:02.523Z,8.4
2024-02-23T01:06:02.167Z,8.4
2024-02-23T01:07:02.844Z,8.3
2024-02-23T01:08:02.787Z,8.3
2024-02-23T01:10:02.214Z,8.3
2024-02-23T01:11:02.577Z,8.3
2024-02-23T01:12:02.262Z,8.3
2024-02-23T01:13:02.404Z,8.2
2024-02-23T01:14:02.585Z,8.2
2024-02-23T01:15:05.538Z,8.2
2024-02-23T01:16:02.419Z,8.2
2024-02-23T01:17:01.945Z,8.2
2024-02-23T01:18:02.809Z,8.1
2024-02-23T01:19:02.279Z,8.1
2024-02-23T01:20:02.446Z,8.1
2024-02-23T01:22:02.242Z,8.1
2024-02-23T01:23:01.936Z,8.1
2024-02-23T01:24:02.755Z,8
2024-02-23T01:25:02.372Z,8
2024-02-23T01:26:02.091Z,8
2024-02-23T01:27:02.342Z,8
2024-02-23T01:28:02.885Z,8
2024-02-23T01:29:02.754Z,8
2024-02-23T01:30:02.201Z,8
2024-02-23T01:31:01.778Z,8
2024-02-23T01:32:03.040Z,8
2024-02-23T01:33:01.990Z,8
2024-02-23T01:35:02.104Z,8
2024-02-23T01:36:02.816Z,8
2024-02-23T01:37:02.673Z,8
2024-02-23T01:38:02.935Z,8
2024-02-23T01:39:02.277Z,7.9
2024-02-23T01:40:02.206Z,7.9
2024-02-23T01:41:02.382Z,7.9
2024-02-23T01:42:02.516Z,7.9
2024-02-23T01:43:03.092Z,7.9
2024-02-23T01:44:02.384Z,7.9
2024-02-23T01:45:02.323Z,7.8
2024-02-23T01:46:02.943Z,7.8
2024-02-23T01:47:03.029Z,7.8
2024-02-23T01:48:02.593Z,7.8
2024-02-23T01:49:02.374Z,7.8
2024-02-23T01:50:02.240Z,7.8
2024-02-23T01:51:02.425Z,7.8
2024-02-23T01:52:01.990Z,7.8
2024-02-23T01:53:02.537Z,7.8
2024-02-23T01:54:02.239Z,7.8
2024-02-23T01:55:02.003Z,7.8
2024-02-23T01:56:02.411Z,7.8
2024-02-23T01:57:13.517Z,7.8
2024-02-23T01:58:04.278Z,7.7
2024-02-23T01:59:02.472Z,7.7
2024-02-23T02:00:02.528Z,7.7
2024-02-23T02:01:02.900Z,7.7
2024-02-23T02:02:02.707Z,7.7
2024-02-23T02:03:02.484Z,7.7
2024-02-23T02:04:02.632Z,7.7
2024-02-23T02:05:02.762Z,7.7
2024-02-23T02:06:02.448Z,7.7
2024-02-23T02:07:02.543Z,7.7
2024-02-23T02:08:02.631Z,7.7
2024-02-23T02:09:02.738Z,7.6
2024-02-23T02:10:02.230Z,7.6
2024-02-23T02:11:02.673Z,7.6
2024-02-23T02:12:02.156Z,7.6
2024-02-23T02:13:02.681Z,7.6
2024-02-23T02:14:02.022Z,7.6
2024-02-23T02:15:01.964Z,7.6
2024-02-23T02:16:02.828Z,7.6
2024-02-23T02:17:01.983Z,7.6
2024-02-23T02:18:02.205Z,7.6
2024-02-23T02:19:02.064Z,7.6
2024-02-23T02:20:02.807Z,7.6
2024-02-23T02:21:02.894Z,7.6
2024-02-23T02:22:02.283Z,7.6
2024-02-23T02:23:02.760Z,7.6
2024-02-23T02:24:02.349Z,7.6
2024-02-23T02:25:02.351Z,7.6
2024-02-23T02:26:02.012Z,7.5
2024-02-23T02:27:02.224Z,7.5
2024-02-23T02:28:02.242Z,7.5
2024-02-23T02:29:02.699Z,7.5
2024-02-23T02:30:02.780Z,7.5
2024-02-23T02:31:02.463Z,7.4
2024-02-23T02:32:02.505Z,7.4
2024-02-23T02:33:02.309Z,7.4
2024-02-23T02:34:02.716Z,7.5
2024-02-23T02:35:02.537Z,7.4
2024-02-23T02:36:01.971Z,7.4
2024-02-23T02:37:02.828Z,7.4
2024-02-23T02:38:02.213Z,7.4
2024-02-23T02:39:02.056Z,7.4
2024-02-23T02:40:02.442Z,7.4
2024-02-23T02:41:02.386Z,7.4
2024-02-23T02:42:03.001Z,7.2
2024-02-23T02:43:02.196Z,7.2
2024-02-23T02:44:02.934Z,7.1
2024-02-23T02:46:03.293Z,6.9
2024-02-23T02:47:02.579Z,6.8
2024-02-23T02:48:02.333Z,6.8
2024-02-23T02:49:02.395Z,6.8
2024-02-23T02:50:02.970Z,6.7
2024-02-23T02:51:02.697Z,6.6
2024-02-23T02:52:02.370Z,6.6
2024-02-23T02:53:02.203Z,6.6
2024-02-23T02:54:02.074Z,6.5
2024-02-23T02:55:02.923Z,6.4
2024-02-23T02:56:02.359Z,6.4
2024-02-23T02:57:02.686Z,6.4
2024-02-23T02:58:02.790Z,6.4
2024-02-23T02:59:02.272Z,6.4
2024-02-23T03:00:02.075Z,6.3
2024-02-23T03:01:02.423Z,6.3
2024-02-23T03:03:02.493Z,6.2
2024-02-23T03:04:02.874Z,6.2
2024-02-23T03:05:01.862Z,6.1
2024-02-23T03:06:02.284Z,6.1
2024-02-23T03:07:02.682Z,6.1
2024-02-23T03:08:02.279Z,6
2024-02-23T03:09:01.762Z,6
2024-02-23T03:10:02.843Z,6
2024-02-23T03:11:02.895Z,6
2024-02-23T03:12:02.914Z,6
2024-02-23T03:13:02.691Z,6
2024-02-23T03:14:02.351Z,6
2024-02-23T03:15:02.308Z,5.9
2024-02-23T03:16:02.291Z,5.9
2024-02-23T03:17:02.831Z,5.9
2024-02-23T03:18:02.409Z,5.9
2024-02-23T03:19:01.722Z,5.9
2024-02-23T03:20:02.391Z,5.9
2024-02-23T03:21:02.144Z,5.9
2024-02-23T03:22:03.075Z,5.8
2024-02-23T03:23:02.163Z,5.8
2024-02-23T03:24:03.091Z,5.8
2024-02-23T03:25:02.385Z,5.8
2024-02-23T03:27:02.738Z,5.8
2024-02-23T03:28:02.370Z,5.7
2024-02-23T03:29:01.859Z,5.8
2024-02-23T03:30:02.332Z,5.8
2024-02-23T03:31:02.728Z,5.7
2024-02-23T03:32:02.197Z,5.7
2024-02-23T03:33:02.219Z,5.7
2024-02-23T03:34:02.410Z,5.7
2024-02-23T03:35:01.891Z,5.7
2024-02-23T03:36:03.005Z,5.7
2024-02-23T03:37:02.353Z,5.7
2024-02-23T03:38:02.495Z,5.7
2024-02-23T03:39:02.623Z,5.7
2024-02-23T03:40:02.300Z,5.6
2024-02-23T03:41:02.646Z,5.7
2024-02-23T03:42:02.487Z,5.6
2024-02-23T03:43:02.143Z,5.6
2024-02-23T03:44:02.097Z,5.6
2024-02-23T03:45:02.463Z,5.6
2024-02-23T03:46:02.851Z,5.6
2024-02-23T03:47:02.644Z,5.6
2024-02-23T03:48:02.453Z,5.6
2024-02-23T03:49:02.151Z,5.6
2024-02-23T03:50:02.004Z,5.6
2024-02-23T03:51:02.772Z,5.6
2024-02-23T03:52:02.544Z,5.6
2024-02-23T03:53:02.191Z,5.6
2024-02-23T03:54:02.043Z,5.6
2024-02-23T03:55:02.268Z,5.6
2024-02-23T03:56:02.228Z,5.6
2024-02-23T03:57:02.550Z,5.5
2024-02-23T04:00:02.067Z,5.5
2024-02-23T04:01:02.415Z,5.5
2024-02-23T04:02:02.527Z,5.5
2024-02-23T04:03:02.361Z,5.4
2024-02-23T04:04:02.373Z,5.5
2024-02-23T04:05:02.617Z,5.5
2024-02-23T04:06:02.072Z,5.4
2024-02-23T04:07:02.502Z,5.4
2024-02-23T04:09:02.514Z,5.4
2024-02-23T04:10:02.604Z,5.4
2024-02-23T04:11:02.683Z,5.4
2024-02-23T04:12:02.498Z,5.4
2024-02-23T04:13:02.497Z,5.4
2024-02-23T04:14:02.330Z,5.4
2024-02-23T04:15:02.729Z,5.4
2024-02-23T04:16:03.103Z,5.4
2024-02-23T04:17:02.551Z,5.4
2024-02-23T04:18:02.427Z,5.4
2024-02-23T04:19:02.017Z,5.4
2024-02-23T04:20:02.305Z,5.4
2024-02-23T04:21:03.085Z,5.4
2024-02-23T04:22:03.061Z,5.3
2024-02-23T04:23:02.815Z,5.4
2024-02-23T04:24:02.756Z,5.3
2024-02-23T04:25:02.428Z,5.4
2024-02-23T04:26:02.663Z,5.4
2024-02-23T04:27:02.012Z,5.4
2024-02-23T04:28:02.471Z,5.3
2024-02-23T04:29:01.938Z,5.4
2024-02-23T04:30:02.627Z,5.4
2024-02-23T04:32:03.407Z,5.3
2024-02-23T04:33:01.766Z,5.3
2024-02-23T04:34:02.299Z,5.3
2024-02-23T04:35:02.270Z,5.3
2024-02-23T04:36:02.511Z,5.3
2024-02-23T04:37:02.139Z,5.3
2024-02-23T04:38:01.926Z,5.3
2024-02-23T04:39:02.727Z,5.3
2024-02-23T04:40:02.736Z,5.3
2024-02-23T04:41:02.616Z,5.3
2024-02-23T04:42:02.270Z,5.3
2024-02-23T04:43:02.754Z,5.3
2024-02-23T04:44:03.217Z,5.3
2024-02-23T04:45:02.496Z,5.3
2024-02-23T04:46:02.251Z,5.3
2024-02-23T04:47:02.614Z,5.3
2024-02-23T04:48:02.446Z,5.3
2024-02-23T04:49:03.034Z,5.3
2024-02-23T04:50:02.681Z,5.3
2024-02-23T04:51:02.464Z,5.3
2024-02-23T04:52:02.168Z,5.3
2024-02-23T04:53:02.425Z,5.2
2024-02-23T04:54:02.060Z,5.3
2024-02-23T04:55:02.473Z,5.3
2024-02-23T04:56:02.868Z,5.2
2024-02-23T04:57:02.535Z,5.3
2024-02-23T04:58:02.846Z,5.3
2024-02-23T04:59:02.553Z,5.3
2024-02-23T05:00:03.016Z,5.3
2024-02-23T05:01:02.725Z,5.3
2024-02-23T05:02:02.135Z,5.2
2024-02-23T05:03:02.230Z,5.2
2024-02-23T05:04:02.575Z,5.2
2024-02-23T05:05:02.367Z,5.3
2024-02-23T05:06:02.882Z,5.2
2024-02-23T05:07:02.112Z,5.2
2024-02-23T05:08:02.953Z,5.2
2024-02-23T05:09:02.311Z,5.2
2024-02-23T05:10:01.876Z,5.2
2024-02-23T05:11:02.074Z,5.2
2024-02-23T05:12:03.026Z,5.2
2024-02-23T05:13:02.292Z,5.2
2024-02-23T05:14:02.356Z,5.2
2024-02-23T05:15:02.183Z,5.2
2024-02-23T05:16:03.017Z,5.2
2024-02-23T05:17:02.124Z,5.2
2024-02-23T05:18:02.265Z,5.2
2024-02-23T05:19:02.921Z,5.2
2024-02-23T05:20:02.707Z,5.2
2024-02-23T05:21:02.346Z,5.2
2024-02-23T05:22:02.750Z,5.2
2024-02-23T05:23:01.791Z,5.2
2024-02-23T05:24:02.242Z,5.2
2024-02-23T05:26:02.052Z,5.2
2024-02-23T05:27:02.426Z,5.2
2024-02-23T05:28:01.975Z,5.2
2024-02-23T05:29:02.313Z,5.2
2024-02-23T05:30:02.790Z,5.2
2024-02-23T05:31:02.798Z,5.2
2024-02-23T05:32:01.978Z,5.2
2024-02-23T05:33:02.403Z,5.2
2024-02-23T05:34:02.912Z,5.2
2024-02-23T05:35:02.390Z,5.2
2024-02-23T05:36:01.843Z,5.2
2024-02-23T05:39:02.302Z,5.2
2024-02-23T05:40:02.655Z,5.2
2024-02-23T05:41:02.906Z,5.2
2024-02-23T05:42:02.149Z,5.2
2024-02-23T05:43:02.356Z,5.2
2024-02-23T05:44:02.286Z,5.2
2024-02-23T05:45:01.987Z,5.2
2024-02-23T05:46:02.799Z,5.2
2024-02-23T05:47:01.917Z,5.2
2024-02-23T05:48:02.213Z,5.2
2024-02-23T05:49:02.436Z,5.2
2024-02-23T05:50:02.345Z,5.2
2024-02-23T05:51:02.208Z,5.2
2024-02-23T05:52:02.466Z,5.2
2024-02-23T05:53:02.155Z,5.2
2024-02-23T05:54:01.946Z,5.2
2024-02-23T05:55:02.726Z,5.2
2024-02-23T05:56:02.229Z,5.2
2024-02-23T05:57:02.748Z,5.2
2024-02-23T05:58:02.360Z,5.2
2024-02-23T06:00:02.089Z,5.2
2024-02-23T06:03:02.581Z,5.2
2024-02-23T06:04:01.997Z,5.2
2024-02-23T06:05:02.222Z,5.2
2024-02-23T06:06:02.713Z,5.2
2024-02-23T06:07:02.280Z,5.2
2024-02-23T06:08:02.274Z,5.2
2024-02-23T06:09:02.481Z,5.2
2024-02-23T06:10:02.487Z,5.2
2024-02-23T06:11:02.667Z,5.2
2024-02-23T06:12:02.921Z,5.2
2024-02-23T06:13:04.757Z,5.2
2024-02-23T06:14:02.597Z,5.2
2024-02-23T06:17:02.860Z,5.2
2024-02-23T06:18:02.240Z,5.2
2024-02-23T06:19:02.889Z,5.2
2024-02-23T06:20:04.982Z,5.2
2024-02-23T06:21:02.622Z,5.2
2024-02-23T06:22:02.427Z,5.2
2024-02-23T06:23:01.820Z,5.2
2024-02-23T06:24:02.617Z,5.2
2024-02-23T06:26:02.967Z,5.2
2024-02-23T06:27:02.311Z,5.2
2024-02-23T06:28:02.905Z,5.2
2024-02-23T06:29:02.058Z,5.2
2024-02-23T06:30:02.289Z,5.2
2024-02-23T06:31:02.880Z,5.2
2024-02-23T06:32:02.004Z,5.2
2024-02-23T06:33:02.446Z,5.2
2024-02-23T06:34:02.685Z,5.2
2024-02-23T06:35:02.392Z,5.2
2024-02-23T06:36:02.131Z,5.2
2024-02-23T06:37:02.884Z,5.2
2024-02-23T06:39:01.912Z,5.2
2024-02-23T06:40:02.223Z,5.2
2024-02-23T06:41:02.702Z,5.2
2024-02-23T06:42:02.396Z,5.2
2024-02-23T06:43:02.171Z,5.2
2024-02-23T06:44:02.394Z,5.2
2024-02-23T06:45:02.906Z,5.2
2024-02-23T06:46:01.960Z,5.2
2024-02-23T06:47:01.878Z,5.2
2024-02-23T06:48:02.725Z,5.2
2024-02-23T06:49:02.486Z,5.3
2024-02-23T06:50:02.289Z,5.2
2024-02-23T06:51:02.445Z,5.2
2024-02-23T06:53:02.803Z,5.2
2024-02-23T06:54:02.873Z,5.3
2024-02-23T06:55:02.426Z,5.3
2024-02-23T06:56:02.828Z,5.3
2024-02-23T06:57:02.823Z,5.3
2024-02-23T06:58:02.782Z,5.2
2024-02-23T06:59:02.285Z,5.2
2024-02-23T07:00:01.948Z,5.3
2024-02-23T07:01:02.733Z,5.2
2024-02-23T07:02:01.997Z,5.2
2024-02-23T07:03:02.592Z,5.2
2024-02-23T07:04:02.296Z,5.2
2024-02-23T07:05:02.839Z,5.2
2024-02-23T07:06:02.766Z,5.3
2024-02-23T07:07:02.740Z,5.3
2024-02-23T07:08:02.323Z,5.3
2024-02-23T07:09:02.303Z,5.3
2024-02-23T07:10:02.732Z,5.3
2024-02-23T07:11:02.426Z,5.3
2024-02-23T07:12:02.842Z,5.2
2024-02-23T07:13:03.727Z,5.3
2024-02-23T07:14:02.916Z,5.3
2024-02-23T07:16:02.478Z,5.3
2024-02-23T07:17:02.214Z,5.3
2024-02-23T07:18:02.334Z,5.3
2024-02-23T07:19:02.116Z,5.4
2024-02-23T07:20:01.936Z,5.3
2024-02-23T07:21:02.244Z,5.4
2024-02-23T07:22:02.029Z,5.4
2024-02-23T07:23:03.009Z,5.4
2024-02-23T07:24:02.349Z,5.3
2024-02-23T07:25:02.717Z,5.4
2024-02-23T07:26:02.310Z,5.4
2024-02-23T07:27:02.747Z,5.3
2024-02-23T07:29:02.633Z,5.4
2024-02-23T07:31:01.786Z,5.4
2024-02-23T07:32:02.973Z,5.4
2024-02-23T07:33:02.093Z,5.4
2024-02-23T07:34:02.970Z,5.4
2024-02-23T07:35:02.519Z,5.4
2024-02-23T07:36:02.287Z,5.4
2024-02-23T07:37:02.755Z,5.5
2024-02-23T07:38:02.554Z,5.5
2024-02-23T07:39:02.691Z,5.5
2024-02-23T07:40:02.316Z,5.5
2024-02-23T07:41:02.844Z,5.5
2024-02-23T07:42:02.283Z,5.5
2024-02-23T07:44:02.808Z,5.5
2024-02-23T07:45:02.333Z,5.5
2024-02-23T07:46:02.654Z,5.6
2024-02-23T07:47:02.937Z,5.5
2024-02-23T07:48:02.361Z,5.6
2024-02-23T07:49:02.219Z,5.6
2024-02-23T07:50:02.522Z,5.6
2024-02-23T07:51:02.616Z,5.6
2024-02-23T07:52:02.649Z,5.6
2024-02-23T07:53:02.126Z,5.6
2024-02-23T07:56:02.721Z,5.6
2024-02-23T07:57:02.308Z,5.6
2024-02-23T07:58:02.272Z,5.6
2024-02-23T07:59:02.438Z,5.6
2024-02-23T08:00:02.692Z,5.6
2024-02-23T08:01:03.069Z,5.6
2024-02-23T08:02:02.492Z,5.6
2024-02-23T08:03:02.521Z,5.6
2024-02-23T08:04:03.020Z,5.7
2024-02-23T08:05:02.454Z,5.7
2024-02-23T08:06:03.977Z,5.7
2024-02-23T08:07:02.466Z,5.7
2024-02-23T08:08:02.840Z,5.7
2024-02-23T08:09:02.488Z,5.7
2024-02-23T08:10:02.511Z,5.7
2024-02-23T08:11:03.089Z,5.7
2024-02-23T08:12:02.402Z,5.7
2024-02-23T08:13:02.583Z,5.7
2024-02-23T08:14:02.392Z,5.7
2024-02-23T08:15:02.441Z,5.7
2024-02-23T08:16:02.564Z,5.8
2024-02-23T08:17:02.545Z,5.8
2024-02-23T08:18:02.211Z,5.8
2024-02-23T08:19:02.236Z,5.8
2024-02-23T08:20:03.038Z,5.8
2024-02-23T08:21:02.440Z,5.8
2024-02-23T08:22:02.220Z,5.8
2024-02-23T08:23:02.292Z,5.8
2024-02-23T08:24:02.905Z,5.8
2024-02-23T08:25:01.902Z,5.9
2024-02-23T08:26:02.566Z,5.9
2024-02-23T08:27:02.114Z,5.9
2024-02-23T08:28:02.861Z,5.9
2024-02-23T08:29:02.126Z,5.9
2024-02-23T08:30:02.292Z,6
2024-02-23T08:31:02.661Z,6
2024-02-23T08:32:02.400Z,6
2024-02-23T08:33:02.764Z,6
2024-02-23T08:34:02.204Z,6
2024-02-23T08:35:02.315Z,6.1
2024-02-23T08:36:02.730Z,6.1
2024-02-23T08:37:02.792Z,6.1
2024-02-23T08:38:02.141Z,6.2
2024-02-23T08:39:02.199Z,6.2
2024-02-23T08:40:02.236Z,6.2
2024-02-23T08:41:02.335Z,6.2
2024-02-23T08:42:02.123Z,6.2
2024-02-23T08:43:02.880Z,6.3
2024-02-23T08:44:02.152Z,6.3
2024-02-23T08:45:02.574Z,6.3
2024-02-23T08:46:06.877Z,6.3
2024-02-23T08:47:02.510Z,6.4
2024-02-23T08:48:02.930Z,6.3
2024-02-23T08:49:02.325Z,6.4
2024-02-23T08:50:01.713Z,6.4
2024-02-23T08:51:02.417Z,6.4
2024-02-23T08:52:01.996Z,6.4
2024-02-23T08:53:02.245Z,6.4
2024-02-23T08:54:02.279Z,6.5
2024-02-23T08:55:02.056Z,6.6
2024-02-23T08:56:01.641Z,6.5
2024-02-23T08:57:02.154Z,6.6
2024-02-23T08:59:02.504Z,6.6
2024-02-23T09:00:02.464Z,6.6
2024-02-23T09:01:02.193Z,6.6
2024-02-23T09:02:02.901Z,6.7
2024-02-23T09:03:01.962Z,6.7
2024-02-23T09:04:02.795Z,6.7
2024-02-23T09:05:02.984Z,6.7
2024-02-23T09:06:02.694Z,6.8
2024-02-23T09:07:02.837Z,6.8
2024-02-23T09:08:01.763Z,6.8
2024-02-23T09:09:02.998Z,6.8
2024-02-23T09:10:01.981Z,6.8
2024-02-23T09:11:02.805Z,6.8
2024-02-23T09:12:02.598Z,6.8
2024-02-23T09:13:01.791Z,6.8
2024-02-23T09:14:02.137Z,6.8
2024-02-23T09:15:03.046Z,6.8
2024-02-23T09:16:02.841Z,6.8
2024-02-23T09:17:02.692Z,6.8
2024-02-23T09:18:02.824Z,6.8
2024-02-23T09:19:02.539Z,6.8
2024-02-23T09:20:02.037Z,6.8
2024-02-23T09:21:02.555Z,6.8
2024-02-23T09:23:02.155Z,6.8
2024-02-23T09:24:02.956Z,6.8
2024-02-23T09:25:02.257Z,6.8
2024-02-23T09:26:02.464Z,6.8
2024-02-23T09:27:02.505Z,6.8
2024-02-23T09:28:01.990Z,6.8
2024-02-23T09:29:02.423Z,6.7
2024-02-23T09:30:02.749Z,6.8
2024-02-23T09:31:02.212Z,6.7
2024-02-23T09:33:02.649Z,6.7
2024-02-23T09:34:02.241Z,6.7
2024-02-23T09:35:02.216Z,6.7
2024-02-23T09:36:02.526Z,6.8
2024-02-23T09:37:02.632Z,6.7
2024-02-23T09:38:02.499Z,6.7
2024-02-23T09:39:02.424Z,6.7
2024-02-23T09:40:02.047Z,6.7
2024-02-23T09:41:02.098Z,6.7
2024-02-23T09:42:02.338Z,6.7
2024-02-23T09:43:02.834Z,6.7
2024-02-23T09:44:02.874Z,6.7
2024-02-23T09:45:02.466Z,6.7
2024-02-23T09:46:02.756Z,6.7
2024-02-23T09:47:02.133Z,6.7
2024-02-23T09:48:02.251Z,6.6
2024-02-23T09:49:02.196Z,6.6
2024-02-23T09:50:02.853Z,6.6
2024-02-23T09:51:02.634Z,6.6
2024-02-23T09:52:02.378Z,6.6
2024-02-23T09:53:02.682Z,6.6
2024-02-23T09:54:02.376Z,6.6
2024-02-23T09:55:02.866Z,6.6
2024-02-23T09:56:02.569Z,6.6
2024-02-23T09:57:01.869Z,6.6
2024-02-23T09:58:02.147Z,6.6
2024-02-23T09:59:02.822Z,6.6
2024-02-23T10:00:01.772Z,6.7
2024-02-23T10:01:01.750Z,6.6
2024-02-23T10:02:02.886Z,6.6
2024-02-23T10:03:02.453Z,6.7
2024-02-23T10:04:02.497Z,6.7
2024-02-23T10:05:02.334Z,6.6
2024-02-23T10:06:02.408Z,6.6
2024-02-23T10:07:02.368Z,6.6
2024-02-23T10:08:02.299Z,6.6
2024-02-23T10:09:02.755Z,6.6
2024-02-23T10:10:02.764Z,6.6
2024-02-23T10:11:02.463Z,6.6
2024-02-23T10:12:01.938Z,6.6
2024-02-23T10:13:01.997Z,6.6
2024-02-23T10:14:02.761Z,6.7
2024-02-23T10:15:01.645Z,6.8
2024-02-23T10:16:11.065Z,6.7
2024-02-23T10:17:02.726Z,6.7
2024-02-23T10:18:02.550Z,6.7
2024-02-23T10:19:02.712Z,6.7
2024-02-23T10:20:02.913Z,6.7
2024-02-23T10:21:02.335Z,6.8
2024-02-23T10:22:02.655Z,6.7
2024-02-23T10:23:02.730Z,6.8
2024-02-23T10:24:02.959Z,6.7
2024-02-23T10:25:01.956Z,6.8
2024-02-23T10:26:02.565Z,6.7
2024-02-23T10:27:01.954Z,6.8
2024-02-23T10:28:02.523Z,6.8
2024-02-23T10:29:02.137Z,6.8
2024-02-23T10:30:02.616Z,6.8
2024-02-23T10:31:02.528Z,6.8
2024-02-23T10:32:02.934Z,6.8
2024-02-23T10:33:02.555Z,6.8
2024-02-23T10:34:02.437Z,6.8
2024-02-23T10:35:02.934Z,6.8
2024-02-23T10:36:02.711Z,6.7
2024-02-23T10:37:02.470Z,6.8
2024-02-23T10:39:02.774Z,6.8
2024-02-23T10:40:02.219Z,6.7
2024-02-23T10:41:02.378Z,6.8
2024-02-23T10:42:02.389Z,6.8
2024-02-23T10:43:02.408Z,6.8
2024-02-23T10:44:02.544Z,6.8
2024-02-23T10:45:02.580Z,6.7
2024-02-23T10:46:02.330Z,6.7
2024-02-23T10:47:02.845Z,6.8
2024-02-23T10:48:02.420Z,6.8
2024-02-23T10:49:03.073Z,6.8
2024-02-23T10:50:02.849Z,6.8
2024-02-23T10:51:01.948Z,6.8
2024-02-23T10:52:02.890Z,6.8
2024-02-23T10:53:02.700Z,6.8
2024-02-23T10:54:02.166Z,6.8
2024-02-23T10:55:01.987Z,6.8
2024-02-23T10:56:02.316Z,6.8
2024-02-23T10:57:02.857Z,6.8
2024-02-23T10:58:02.345Z,6.8
2024-02-23T10:59:02.943Z,6.8
2024-02-23T11:02:02.279Z,6.7
2024-02-23T11:03:02.284Z,6.8
2024-02-23T11:04:02.809Z,6.8
2024-02-23T11:05:02.390Z,6.8
2024-02-23T11:06:02.098Z,6.8
2024-02-23T11:07:02.108Z,6.8
2024-02-23T11:08:03.090Z,6.8
2024-02-23T11:09:02.375Z,6.8
2024-02-23T11:10:02.190Z,6.8
2024-02-23T11:11:01.704Z,6.8
2024-02-23T11:12:02.784Z,6.8
2024-02-23T11:13:02.781Z,6.8
2024-02-23T11:14:02.223Z,6.8
2024-02-23T11:15:02.687Z,6.8
2024-02-23T11:16:02.953Z,6.8
2024-02-23T11:17:01.878Z,6.8
2024-02-23T11:18:02.490Z,6.8
2024-02-23T11:19:02.039Z,6.8
2024-02-23T11:20:02.253Z,6.8
2024-02-23T11:21:02.676Z,6.8
2024-02-23T11:22:02.088Z,6.8
2024-02-23T11:23:02.556Z,6.8
2024-02-23T11:24:03.018Z,6.8
2024-02-23T11:25:02.203Z,6.9
2024-02-23T11:26:02.740Z,6.9
2024-02-23T11:27:02.648Z,6.9
2024-02-23T11:28:02.197Z,6.9
2024-02-23T11:29:02.255Z,6.9
2024-02-23T11:30:02.064Z,6.9
2024-02-23T11:31:01.901Z,6.9
2024-02-23T11:32:02.522Z,6.9
2024-02-23T11:33:02.172Z,6.9
2024-02-23T11:34:02.713Z,6.9
2024-02-23T11:35:02.158Z,6.8
2024-02-23T11:36:02.092Z,6.8
2024-02-23T11:37:02.085Z,6.8
2024-02-23T11:38:02.723Z,6.8
2024-02-23T11:40:02.333Z,6.8
2024-02-23T11:41:02.683Z,6.8
2024-02-23T11:42:02.235Z,6.8
2024-02-23T11:43:02.478Z,6.8
2024-02-23T11:44:02.267Z,6.8
2024-02-23T11:45:02.291Z,6.8
2024-02-23T11:46:02.220Z,6.8
2024-02-23T11:47:02.178Z,6.7
2024-02-23T11:48:02.316Z,6.7
2024-02-23T11:49:02.683Z,6.7
2024-02-23T11:50:02.316Z,6.7
2024-02-23T11:51:02.366Z,6.7
2024-02-23T11:52:02.945Z,6.7
2024-02-23T11:53:02.991Z,6.7
2024-02-23T11:54:02.240Z,6.7
2024-02-23T11:55:02.067Z,6.7
2024-02-23T11:56:01.855Z,6.6
2024-02-23T11:57:02.375Z,6.6
2024-02-23T11:58:08.612Z,6.6
2024-02-23T11:59:02.116Z,6.6
2024-02-23T12:00:01.998Z,6.7
2024-02-23T12:01:02.725Z,6.6
2024-02-23T12:02:05.753Z,6.6
2024-02-23T12:03:02.645Z,6.6
2024-02-23T12:04:02.678Z,6.6
2024-02-23T12:05:02.194Z,6.6
2024-02-23T12:07:02.146Z,6.6
2024-02-23T12:08:02.247Z,6.6
2024-02-23T12:09:02.262Z,6.6
2024-02-23T12:10:02.593Z,6.6
2024-02-23T12:11:02.367Z,6.6
2024-02-23T12:12:02.339Z,6.6
2024-02-23T12:13:02.449Z,6.6
2024-02-23T12:14:02.576Z,6.6
2024-02-23T12:15:02.351Z,6.6
2024-02-23T12:16:02.622Z,6.6
2024-02-23T12:17:02.466Z,6.6
2024-02-23T12:18:02.626Z,6.6
2024-02-23T12:19:01.970Z,6.7
2024-02-23T12:20:02.585Z,6.6
2024-02-23T12:21:02.284Z,6.6
2024-02-23T12:22:02.013Z,6.6
2024-02-23T12:23:02.813Z,6.6
2024-02-23T12:24:02.093Z,6.6
2024-02-23T12:25:02.803Z,6.7
2024-02-23T12:26:02.545Z,6.7
2024-02-23T12:27:02.779Z,6.7
2024-02-23T12:28:02.747Z,6.6
2024-02-23T12:29:02.421Z,6.7
2024-02-23T12:31:02.828Z,6.7
2024-02-23T12:33:02.769Z,6.7
2024-02-23T12:34:02.263Z,6.7
2024-02-23T12:35:02.070Z,6.7
2024-02-23T12:36:02.550Z,6.7
2024-02-23T12:37:02.130Z,6.7
2024-02-23T12:38:02.752Z,6.7
2024-02-23T12:39:02.935Z,6.7
2024-02-23T12:40:02.774Z,6.7
2024-02-23T12:41:02.510Z,6.7
2024-02-23T12:42:02.424Z,6.7
2024-02-23T12:43:02.810Z,6.7
2024-02-23T12:44:02.164Z,6.7
2024-02-23T12:45:02.696Z,6.7
2024-02-23T12:46:02.424Z,6.7
2024-02-23T12:47:01.945Z,6.7
2024-02-23T12:48:01.949Z,6.7
2024-02-23T12:49:02.236Z,6.7
2024-02-23T12:50:02.334Z,6.8
2024-02-23T12:51:02.648Z,6.8
2024-02-23T12:52:02.683Z,6.8
2024-02-23T12:53:02.267Z,6.7
2024-02-23T12:54:02.200Z,6.7
2024-02-23T12:55:02.470Z,6.7
2024-02-23T12:56:02.509Z,6.8
2024-02-23T12:57:02.250Z,6.7
2024-02-23T12:58:02.168Z,6.8
2024-02-23T12:59:02.603Z,6.7
2024-02-23T13:00:02.546Z,6.7
2024-02-23T13:01:02.296Z,6.7
2024-02-23T13:02:02.576Z,6.7
2024-02-23T13:03:02.732Z,6.7
2024-02-23T13:04:02.671Z,6.7
2024-02-23T13:05:02.077Z,6.7
2024-02-23T13:06:02.106Z,6.7
2024-02-23T13:07:02.838Z,6.7
2024-02-23T13:08:02.572Z,6.7
2024-02-23T13:09:02.952Z,6.7
2024-02-23T13:10:02.438Z,6.7
2024-02-23T13:12:03.219Z,6.7
2024-02-23T13:13:02.006Z,6.7
2024-02-23T13:14:02.611Z,6.7
2024-02-23T13:15:03.064Z,6.7
2024-02-23T13:16:01.935Z,6.7
2024-02-23T13:17:02.970Z,6.6
2024-02-23T13:18:02.104Z,6.6
2024-02-23T13:19:02.296Z,6.6
2024-02-23T13:20:08.907Z,6.6
2024-02-23T13:21:02.366Z,6.6
2024-02-23T13:22:02.539Z,6.6
2024-02-23T13:23:02.213Z,6.6
2024-02-23T13:24:02.269Z,6.5
2024-02-23T13:25:02.914Z,6.6
2024-02-23T13:26:01.947Z,6.6
2024-02-23T13:27:02.559Z,6.6
2024-02-23T13:28:01.763Z,6.6
2024-02-23T13:29:02.920Z,6.6
2024-02-23T13:30:02.411Z,6.6
2024-02-23T13:31:02.571Z,6.6
2024-02-23T13:32:02.357Z,6.6
2024-02-23T13:33:02.869Z,6.6
2024-02-23T13:34:02.523Z,6.5
2024-02-23T13:35:02.635Z,6.6
2024-02-23T13:36:02.123Z,6.6
2024-02-23T13:37:02.617Z,6.5
2024-02-23T13:38:02.944Z,6.6
2024-02-23T13:39:02.583Z,6.6
2024-02-23T13:40:02.482Z,6.6
2024-02-23T13:41:02.215Z,6.5
2024-02-23T13:42:02.276Z,6.6
2024-02-23T13:43:01.984Z,6.6
2024-02-23T13:44:02.777Z,6.5
2024-02-23T13:45:02.664Z,6.6
2024-02-23T13:46:02.363Z,6.5
2024-02-23T13:48:02.717Z,6.5
2024-02-23T13:49:02.473Z,6.6
2024-02-23T13:50:02.814Z,6.5
2024-02-23T13:51:02.298Z,6.5
2024-02-23T13:52:02.370Z,6.5
2024-02-23T13:53:02.055Z,6.6
2024-02-23T13:54:02.095Z,6.5
2024-02-23T13:55:02.201Z,6.5
2024-02-23T13:56:02.848Z,6.5
2024-02-23T13:57:02.578Z,6.6
2024-02-23T13:58:02.439Z,6.5
2024-02-23T13:59:02.164Z,6.5
2024-02-23T14:00:02.155Z,6.5
2024-02-23T14:01:02.167Z,6.5
2024-02-23T14:02:02.772Z,6.5
2024-02-23T14:03:02.770Z,6.5
2024-02-23T14:04:02.762Z,6.5
2024-02-23T14:05:02.530Z,6.5
2024-02-23T14:06:02.318Z,6.5
2024-02-23T14:08:04.365Z,6.5
2024-02-23T14:09:02.190Z,6.5
2024-02-23T14:10:02.863Z,6.4
2024-02-23T14:12:02.523Z,6.4
2024-02-23T14:13:02.076Z,6.4
2024-02-23T14:14:02.813Z,6.4
2024-02-23T14:15:02.247Z,6.4
2024-02-23T14:16:02.244Z,6.4
2024-02-23T14:17:02.925Z,6.4
2024-02-23T14:18:02.467Z,6.4
2024-02-23T14:19:01.948Z,6.4
2024-02-23T14:20:02.484Z,6.4
2024-02-23T14:21:02.536Z,6.4
2024-02-23T14:22:02.757Z,6.4
2024-02-23T14:23:02.274Z,6.4
2024-02-23T14:24:02.221Z,6.4
2024-02-23T14:25:02.054Z,6.4
2024-02-23T14:26:02.619Z,6.4
2024-02-23T14:27:02.161Z,6.3
2024-02-23T14:28:02.718Z,6.3
2024-02-23T14:29:02.279Z,6.4
2024-02-23T14:30:01.929Z,6.4
2024-02-23T14:31:01.847Z,6.4